createdAt,value
2023-05-22T00:01:22.747Z,54.17
2023-05-22T00:03:50.860Z,57.88
2023-05-22T00:06:18.519Z,43.92
2023-05-22T00:08:45.355Z,44.22
2023-05-22T00:11:12.158Z,25.05
2023-05-22T00:13:38.933Z,21.15
2023-05-22T00:16:06.129Z,26.48
2023-05-22T00:18:32.861Z,26.38
2023-05-22T00:20:59.594Z,22.55
2023-05-22T00:23:28.231Z,21.65
2023-05-22T00:25:54.944Z,23.88
2023-05-22T00:28:21.871Z,25.23
2023-05-22T00:30:48.626Z,30.10
2023-05-22T00:33:16.101Z,24.73
2023-05-22T00:35:42.882Z,22.88
2023-05-22T00:38:09.654Z,24.48
2023-05-22T00:40:36.663Z,21.38
2023-05-22T00:43:08.478Z,21.50
2023-05-22T00:45:35.753Z,19.83
2023-05-22T00:48:02.480Z,19.83
2023-05-22T00:50:29.608Z,20.65
2023-05-22T00:52:56.321Z,17.90
2023-05-22T00:55:23.105Z,17.50
2023-05-22T00:57:50.507Z,13.65
2023-05-22T01:00:17.459Z,13.25
2023-05-22T01:02:45.553Z,9.82
2023-05-22T01:05:13.470Z,14.30
2023-05-22T01:07:40.631Z,9.77
2023-05-22T01:10:08.103Z,8.63
2023-05-22T01:12:53.185Z,6.95
2023-05-22T01:15:57.301Z,5.60
2023-05-22T01:18:46.280Z,7.43
2023-05-22T01:21:24.467Z,7.38
2023-05-22T01:24:31.700Z,9.38
2023-05-22T01:27:42.791Z,8.77
2023-05-22T01:30:19.102Z,7.45
2023-05-22T01:32:47.642Z,8.05
2023-05-22T01:35:18.736Z,11.23
2023-05-22T01:37:45.641Z,10.70
2023-05-22T01:40:13.833Z,9.48
2023-05-22T01:42:41.388Z,9.65
2023-05-22T01:45:11.897Z,8.50
2023-05-22T01:47:39.008Z,12.20
2023-05-22T01:50:06.895Z,10.82
2023-05-22T01:53:14.375Z,9.05
2023-05-22T01:56:01.781Z,10.45
2023-05-22T01:59:09.348Z,11.15
2023-05-22T02:01:38.403Z,11.82
2023-05-22T02:04:06.599Z,10.35
2023-05-22T02:06:33.987Z,9.93
2023-05-22T02:09:03.104Z,10.30
2023-05-22T02:11:32.852Z,9.35
2023-05-22T02:14:01.867Z,10.77
2023-05-22T02:16:30.315Z,11.27
2023-05-22T02:19:06.076Z,9.90
2023-05-22T02:21:34.670Z,13.45
2023-05-22T02:24:02.467Z,10.73
2023-05-22T02:26:29.715Z,9.82
2023-05-22T02:28:59.888Z,7.43
2023-05-22T02:31:27.082Z,10.10
2023-05-22T02:33:53.927Z,7.70
2023-05-22T02:36:20.869Z,10.63
2023-05-22T02:38:47.883Z,10.85
2023-05-22T02:41:14.732Z,14.73
2023-05-22T02:43:41.743Z,15.40
2023-05-22T02:46:08.551Z,12.60
2023-05-22T02:48:35.425Z,13.95
2023-05-22T02:51:02.168Z,14.07
2023-05-22T02:53:28.969Z,16.35
2023-05-22T02:55:58.950Z,15.10
2023-05-22T02:58:26.011Z,17.65
2023-05-22T03:00:55.649Z,16.83
2023-05-22T03:03:25.124Z,15.18
2023-05-22T03:05:54.501Z,16.10
2023-05-22T03:08:21.659Z,18.92
2023-05-22T03:10:48.441Z,18.17
2023-05-22T03:13:15.484Z,21.30
2023-05-22T03:15:42.240Z,17.08
2023-05-22T03:18:13.414Z,18.42
2023-05-22T03:20:41.977Z,13.02
2023-05-22T03:23:09.061Z,14.52
2023-05-22T03:25:35.900Z,14.65
2023-05-22T03:28:02.912Z,15.07
2023-05-22T03:30:34.045Z,14.63
2023-05-22T03:33:13.636Z,12.75
2023-05-22T03:35:40.522Z,11.02
2023-05-22T03:38:07.475Z,14.25
2023-05-22T03:40:34.856Z,14.00
2023-05-22T03:43:01.642Z,13.95
2023-05-22T03:45:28.712Z,16.25
2023-05-22T03:47:55.806Z,13.75
2023-05-22T03:50:24.042Z,13.50
2023-05-22T03:52:50.825Z,13.70
2023-05-22T03:55:17.818Z,13.38
2023-05-22T03:57:44.541Z,11.00
2023-05-22T04:00:11.994Z,11.73
2023-05-22T04:02:45.237Z,14.07
2023-05-22T04:05:13.016Z,13.90
2023-05-22T04:07:39.857Z,16.13
2023-05-22T04:10:07.170Z,15.15
2023-05-22T04:12:34.157Z,11.65
2023-05-22T04:15:01.028Z,10.50
2023-05-22T04:17:33.677Z,10.68
2023-05-22T04:20:00.689Z,10.63
2023-05-22T04:22:27.892Z,11.38
2023-05-22T04:24:54.701Z,8.02
2023-05-22T04:27:22.753Z,10.88
2023-05-22T04:29:52.401Z,12.32
2023-05-22T04:32:21.714Z,10.57
2023-05-22T04:34:52.318Z,10.10
2023-05-22T04:37:20.534Z,10.80
2023-05-22T04:39:48.783Z,8.57
2023-05-22T04:42:16.054Z,8.70
2023-05-22T04:44:43.642Z,9.90
2023-05-22T04:47:12.106Z,9.00
2023-05-22T04:49:39.216Z,8.23
2023-05-22T04:52:07.379Z,10.68
2023-05-22T04:54:34.579Z,11.45
2023-05-22T04:57:03.123Z,9.20
2023-05-22T04:59:33.475Z,7.25
2023-05-22T05:02:02.799Z,9.25
2023-05-22T05:04:29.677Z,6.70
2023-05-22T05:06:57.630Z,6.18
2023-05-22T05:09:24.878Z,6.72
2023-05-22T05:11:52.686Z,6.68
2023-05-22T05:14:19.949Z,8.55
2023-05-22T05:16:47.007Z,7.15
2023-05-22T05:19:15.525Z,5.28
2023-05-22T05:21:42.778Z,5.95
2023-05-22T05:24:09.838Z,6.93
2023-05-22T05:26:37.102Z,7.13
2023-05-22T05:29:04.217Z,6.55
2023-05-22T05:31:37.956Z,7.45
2023-05-22T05:34:23.690Z,8.10
2023-05-22T05:37:03.104Z,6.70
2023-05-22T05:39:30.672Z,8.48
2023-05-22T05:42:00.408Z,8.45
2023-05-22T05:44:27.633Z,7.28
2023-05-22T05:46:56.162Z,7.90
2023-05-22T05:49:23.001Z,7.68
2023-05-22T05:51:50.108Z,6.65
2023-05-22T05:54:18.189Z,3.95
2023-05-22T05:56:46.475Z,3.28
2023-05-22T05:59:13.379Z,8.00
2023-05-22T06:02:09.886Z,3.92
2023-05-22T06:04:36.988Z,5.82
2023-05-22T06:07:04.489Z,6.82
2023-05-22T06:09:39.055Z,8.13
2023-05-22T06:12:24.558Z,4.78
2023-05-22T06:14:51.316Z,7.55
2023-05-22T06:17:18.088Z,5.60
2023-05-22T06:19:45.684Z,4.78
2023-05-22T06:22:13.422Z,9.73
2023-05-22T06:24:42.832Z,6.53
2023-05-22T06:29:41.747Z,8.57
2023-05-22T06:32:08.899Z,7.78
2023-05-22T06:34:38.083Z,9.70
2023-05-22T06:37:06.317Z,8.07
2023-05-22T06:39:39.292Z,5.85
2023-05-22T06:42:27.132Z,8.18
2023-05-22T06:45:13.952Z,5.55
2023-05-22T06:47:54.479Z,12.63
2023-05-22T06:50:22.324Z,5.18
2023-05-22T06:52:49.443Z,6.88
2023-05-22T06:55:18.070Z,12.48
2023-05-22T06:57:57.675Z,8.38
2023-05-22T07:00:26.124Z,8.73
2023-05-22T07:03:04.906Z,8.38
2023-05-22T07:05:39.614Z,8.93
2023-05-22T07:08:06.506Z,10.23
2023-05-22T07:10:34.446Z,5.55
2023-05-22T07:13:02.138Z,8.35
2023-05-22T07:15:30.631Z,7.45
2023-05-22T07:17:59.447Z,10.35
2023-05-22T07:20:26.402Z,7.30
2023-05-22T07:23:13.480Z,5.35
2023-05-22T07:25:41.249Z,5.05
2023-05-22T07:28:09.464Z,6.45
2023-05-22T07:30:45.574Z,5.70
2023-05-22T07:33:12.716Z,7.22
2023-05-22T07:35:39.883Z,4.75
2023-05-22T07:38:07.717Z,5.75
2023-05-22T07:40:35.536Z,7.45
2023-05-22T07:43:02.478Z,7.22
2023-05-22T07:45:31.101Z,5.78
2023-05-22T07:48:02.110Z,8.00
2023-05-22T07:50:33.174Z,5.90
2023-05-22T07:53:00.336Z,9.02
2023-05-22T07:55:27.578Z,7.53
2023-05-22T07:57:55.049Z,8.88
2023-05-22T08:00:30.238Z,7.43
2023-05-22T08:02:57.177Z,6.82
2023-05-22T08:05:24.158Z,6.53
2023-05-22T08:07:51.072Z,7.25
2023-05-22T08:10:19.113Z,5.68
2023-05-22T08:12:46.231Z,5.32
2023-05-22T08:15:12.982Z,4.80
2023-05-22T08:17:39.904Z,7.45
2023-05-22T08:20:07.684Z,8.02
2023-05-22T08:22:36.864Z,10.50
2023-05-22T08:25:04.281Z,4.82
2023-05-22T08:27:31.199Z,5.00
2023-05-22T08:29:58.017Z,6.93
2023-05-22T08:32:24.812Z,11.13
2023-05-22T08:34:51.683Z,6.32
2023-05-22T08:37:18.553Z,4.85
2023-05-22T08:39:45.594Z,5.07
2023-05-22T08:42:12.478Z,11.35
2023-05-22T08:44:39.589Z,5.30
2023-05-22T08:47:11.368Z,6.10
2023-05-22T08:49:40.084Z,3.45
2023-05-22T08:52:13.964Z,6.60
2023-05-22T08:54:43.364Z,3.53
2023-05-22T08:57:10.905Z,8.45
2023-05-22T08:59:40.069Z,8.98
2023-05-22T09:02:07.600Z,10.23
2023-05-22T09:04:35.006Z,4.93
2023-05-22T09:07:05.980Z,8.07
2023-05-22T09:09:37.596Z,8.13
2023-05-22T09:12:11.777Z,3.80
2023-05-22T09:14:42.363Z,9.20
2023-05-22T09:17:13.782Z,5.22
2023-05-22T09:19:45.533Z,6.15
2023-05-22T09:22:13.158Z,8.02
2023-05-22T09:24:43.509Z,7.25
2023-05-22T09:27:11.839Z,7.30
2023-05-22T09:29:52.725Z,5.95
2023-05-22T09:32:20.220Z,7.20
2023-05-22T09:34:47.268Z,8.48
2023-05-22T09:37:14.766Z,7.32
2023-05-22T09:39:47.476Z,7.88
2023-05-22T09:42:18.005Z,8.32
2023-05-22T09:44:51.718Z,9.23
2023-05-22T09:47:18.815Z,5.22
2023-05-22T09:49:46.100Z,7.68
2023-05-22T09:52:13.066Z,6.18
2023-05-22T09:54:47.550Z,8.07
2023-05-22T09:57:20.784Z,6.72
2023-05-22T09:59:54.300Z,9.18
2023-05-22T10:02:26.329Z,9.27
2023-05-22T10:04:54.624Z,5.47
2023-05-22T10:07:23.349Z,9.70
2023-05-22T10:09:59.854Z,4.70
2023-05-22T10:12:28.713Z,7.78
2023-05-22T10:14:55.738Z,8.80
2023-05-22T10:17:24.220Z,7.25
2023-05-22T10:19:53.616Z,8.98
2023-05-22T10:22:22.655Z,5.30
2023-05-22T10:24:50.909Z,7.07
2023-05-22T10:27:18.155Z,7.22
2023-05-22T10:29:53.103Z,7.30
2023-05-22T10:33:07.849Z,7.20
2023-05-22T10:35:55.940Z,6.78
2023-05-22T10:38:48.429Z,5.63
2023-05-22T10:41:16.877Z,6.50
2023-05-22T10:43:43.957Z,6.38
2023-05-22T10:46:12.807Z,4.70
2023-05-22T10:48:45.458Z,5.18
2023-05-22T10:51:18.107Z,4.00
2023-05-22T10:53:47.744Z,4.43
2023-05-22T10:56:16.485Z,3.50
2023-05-22T10:58:55.802Z,3.65
2023-05-22T11:01:25.920Z,5.57
2023-05-22T11:04:01.258Z,5.53
2023-05-22T11:06:45.724Z,4.82
2023-05-22T11:09:30.807Z,4.70
2023-05-22T11:12:27.535Z,7.65
2023-05-22T11:14:55.440Z,4.00
2023-05-22T11:17:28.190Z,3.17
2023-05-22T11:20:13.794Z,2.90
2023-05-22T11:22:44.980Z,7.43
2023-05-22T11:25:16.881Z,7.38
2023-05-22T11:27:44.722Z,6.95
2023-05-22T11:30:12.792Z,5.15
2023-05-22T11:32:41.417Z,3.58
2023-05-22T11:35:08.745Z,6.65
2023-05-22T11:37:39.922Z,7.97
2023-05-22T11:40:07.748Z,3.60
2023-05-22T11:42:35.800Z,4.30
2023-05-22T11:45:03.459Z,5.50
2023-05-22T11:47:30.942Z,4.25
2023-05-22T11:49:58.457Z,5.80
2023-05-22T11:52:25.944Z,3.72
2023-05-22T11:54:53.225Z,4.03
2023-05-22T11:57:20.857Z,5.88
2023-05-22T11:59:48.364Z,4.88
2023-05-22T12:02:19.366Z,3.95
2023-05-22T12:04:46.653Z,4.38
2023-05-22T12:07:14.100Z,3.67
2023-05-22T12:09:43.016Z,3.83
2023-05-22T12:12:11.565Z,7.32
2023-05-22T12:14:38.735Z,7.28
2023-05-22T12:17:06.474Z,7.50
2023-05-22T12:19:33.356Z,3.78
2023-05-22T12:22:00.172Z,4.10
2023-05-22T12:24:38.204Z,4.22
2023-05-22T12:27:09.111Z,7.57
2023-05-22T12:29:36.377Z,6.07
2023-05-22T12:32:04.176Z,5.63
2023-05-22T12:34:35.216Z,6.50
2023-05-22T12:37:02.275Z,7.40
2023-05-22T12:39:30.309Z,6.97
2023-05-22T12:41:57.074Z,4.82
2023-05-22T12:44:23.804Z,5.28
2023-05-22T12:46:52.269Z,5.22
2023-05-22T12:49:19.196Z,5.00
2023-05-22T12:51:46.061Z,8.73
2023-05-22T12:54:14.804Z,6.20
2023-05-22T12:56:41.591Z,4.65
2023-05-22T12:59:08.724Z,6.40
2023-05-22T13:01:35.692Z,3.53
2023-05-22T13:04:02.433Z,6.68
2023-05-22T13:06:30.518Z,3.30
2023-05-22T13:08:57.645Z,4.63
2023-05-22T13:11:26.740Z,3.95
2023-05-22T13:13:53.697Z,10.00
2023-05-22T13:16:20.834Z,5.53
2023-05-22T13:18:48.117Z,5.82
2023-05-22T13:21:15.064Z,6.85
2023-05-22T13:23:42.291Z,4.20
2023-05-22T13:26:09.157Z,6.80
2023-05-22T13:28:35.878Z,7.05
2023-05-22T13:31:02.738Z,4.93
2023-05-22T13:33:29.432Z,6.22
2023-05-22T13:35:56.480Z,4.30
2023-05-22T13:38:23.145Z,9.00
2023-05-22T13:40:50.090Z,5.95
2023-05-22T13:43:16.857Z,6.82
2023-05-22T13:45:43.652Z,4.20
2023-05-22T13:48:11.314Z,6.25
2023-05-22T13:50:38.196Z,4.90
2023-05-22T13:53:05.036Z,6.15
2023-05-22T13:55:31.811Z,5.68
2023-05-22T13:57:58.897Z,3.95
2023-05-22T14:00:25.930Z,6.53
2023-05-22T14:02:52.886Z,8.20
2023-05-22T14:05:19.922Z,5.00
2023-05-22T14:07:46.663Z,6.55
2023-05-22T14:10:13.597Z,4.45
2023-05-22T14:12:40.444Z,11.55
2023-05-22T14:15:07.930Z,4.65
2023-05-22T14:17:34.673Z,4.13
2023-05-22T14:20:01.525Z,4.60
2023-05-22T14:22:28.430Z,6.10
2023-05-22T14:24:55.200Z,4.55
2023-05-22T14:27:21.903Z,2.67
2023-05-22T14:29:48.697Z,4.63
2023-05-22T14:32:15.407Z,4.90
2023-05-22T14:34:42.171Z,3.97
2023-05-22T14:37:08.837Z,4.32
2023-05-22T14:39:35.698Z,4.35
2023-05-22T14:42:02.354Z,8.88
2023-05-22T14:44:29.396Z,4.43
2023-05-22T14:46:56.265Z,4.03
2023-05-22T14:49:23.113Z,7.35
2023-05-22T14:51:50.020Z,8.18
2023-05-22T14:54:20.151Z,4.07
2023-05-22T14:56:46.949Z,9.77
2023-05-22T14:59:14.330Z,8.25
2023-05-22T15:01:41.505Z,8.48
2023-05-22T15:04:09.010Z,10.25
2023-05-22T15:06:36.320Z,7.65
2023-05-22T15:09:03.319Z,6.43
2023-05-22T15:11:30.465Z,6.82
2023-05-22T15:13:57.190Z,9.70
2023-05-22T15:16:25.782Z,7.55
2023-05-22T15:18:52.830Z,6.30
2023-05-22T15:21:19.722Z,6.22
2023-05-22T15:23:46.962Z,6.47
2023-05-22T15:26:13.775Z,6.20
2023-05-22T15:28:41.008Z,6.70
2023-05-22T15:31:07.735Z,8.77
2023-05-22T15:33:34.495Z,7.03
2023-05-22T15:36:01.186Z,8.43
2023-05-22T15:38:28.784Z,7.63
2023-05-22T15:40:55.579Z,7.25
2023-05-22T15:43:23.796Z,9.95
2023-05-22T15:45:52.768Z,7.00
2023-05-22T15:48:19.639Z,6.32
2023-05-22T15:50:46.579Z,6.60
2023-05-22T15:53:13.388Z,4.97
2023-05-22T15:55:40.298Z,8.48
2023-05-22T15:58:08.008Z,7.07
2023-05-22T16:00:41.304Z,10.35
2023-05-22T16:03:08.952Z,4.40
2023-05-22T16:05:39.770Z,7.80
2023-05-22T16:08:09.867Z,8.57
2023-05-22T16:10:36.888Z,6.07
2023-05-22T16:13:06.985Z,7.05
2023-05-22T16:15:34.395Z,17.85
2023-05-22T16:18:01.484Z,9.20
2023-05-22T16:20:28.306Z,5.95
2023-05-22T16:22:55.045Z,9.55
2023-05-22T16:25:22.002Z,6.13
2023-05-22T16:27:48.670Z,6.00
2023-05-22T16:30:18.918Z,7.97
2023-05-22T16:32:46.844Z,6.90
2023-05-22T16:35:14.642Z,7.40
2023-05-22T16:37:41.436Z,6.43
2023-05-22T16:40:11.457Z,4.85
2023-05-22T16:42:38.441Z,13.13
2023-05-22T16:45:06.399Z,8.15
2023-05-22T16:47:33.502Z,10.27
2023-05-22T16:50:00.480Z,8.45
2023-05-22T16:52:27.353Z,5.80
2023-05-22T16:54:54.267Z,8.60
2023-05-22T16:57:21.073Z,32.28
2023-05-22T16:59:47.988Z,14.70
2023-05-22T17:02:14.990Z,7.40
2023-05-22T17:04:41.684Z,7.30
2023-05-22T17:07:08.446Z,4.30
2023-05-22T17:09:35.293Z,7.32
2023-05-22T17:12:02.059Z,6.55
2023-05-22T17:14:28.810Z,8.52
2023-05-22T17:16:56.172Z,6.57
2023-05-22T17:19:23.094Z,7.20
2023-05-22T17:21:49.985Z,8.48
2023-05-22T17:24:16.736Z,6.80
2023-05-22T17:26:44.176Z,5.15
2023-05-22T17:29:11.134Z,9.77
2023-05-22T17:31:39.458Z,4.80
2023-05-22T17:34:06.609Z,10.63
2023-05-22T17:36:33.687Z,8.73
2023-05-22T17:39:01.010Z,7.85
2023-05-22T17:41:27.852Z,7.20
2023-05-22T17:43:57.054Z,8.15
2023-05-22T17:46:23.891Z,14.52
2023-05-22T17:48:50.678Z,5.07
2023-05-22T17:51:18.465Z,8.10
2023-05-22T17:53:45.350Z,5.45
2023-05-22T17:56:12.142Z,10.23
2023-05-22T17:58:39.112Z,10.48
2023-05-22T18:01:06.125Z,8.45
2023-05-22T18:03:34.167Z,4.85
2023-05-22T18:06:01.174Z,9.85
2023-05-22T18:08:28.431Z,6.78
2023-05-22T18:10:55.878Z,4.97
2023-05-22T18:13:24.164Z,4.65
2023-05-22T18:15:51.749Z,9.00
2023-05-22T18:18:18.783Z,6.00
2023-05-22T18:20:48.971Z,8.70
2023-05-22T18:23:16.590Z,9.13
2023-05-22T18:25:43.311Z,6.68
2023-05-22T18:28:10.656Z,7.03
2023-05-22T18:30:37.711Z,7.47
2023-05-22T18:33:04.791Z,7.70
2023-05-22T18:35:31.733Z,5.32
2023-05-22T18:38:00.249Z,8.45
2023-05-22T18:40:27.058Z,9.77
2023-05-22T18:42:55.094Z,6.57
2023-05-22T18:45:21.792Z,4.25
2023-05-22T18:47:48.591Z,8.13
2023-05-22T18:50:15.312Z,6.05
2023-05-22T18:52:43.431Z,8.82
2023-05-22T18:55:10.872Z,6.63
2023-05-22T18:57:37.740Z,10.93
2023-05-22T19:00:07.299Z,9.55
2023-05-22T19:02:34.246Z,9.60
2023-05-22T19:05:01.187Z,10.38
2023-05-22T19:07:28.159Z,6.18
2023-05-22T19:09:54.971Z,7.72
2023-05-22T19:12:24.710Z,5.85
2023-05-22T19:14:52.580Z,6.57
2023-05-22T19:17:19.401Z,9.82
2023-05-22T19:19:46.699Z,9.18
2023-05-22T19:22:14.245Z,7.50
2023-05-22T19:24:41.903Z,10.00
2023-05-22T19:29:49.408Z,7.07
2023-05-22T19:32:16.242Z,8.13
2023-05-22T19:34:43.019Z,10.77
2023-05-22T19:37:10.006Z,6.45
2023-05-22T19:39:36.795Z,8.13
2023-05-22T19:42:03.774Z,10.77
2023-05-22T19:44:33.572Z,9.35
2023-05-22T19:47:00.403Z,8.32
2023-05-22T19:49:31.666Z,8.20
2023-05-22T19:54:26.400Z,10.93
2023-05-22T19:56:53.249Z,10.07
2023-05-22T19:59:23.344Z,8.80
2023-05-22T20:01:52.214Z,12.07
2023-05-22T20:04:21.500Z,9.20
2023-05-22T20:06:49.256Z,13.48
2023-05-22T20:09:16.419Z,16.05
2023-05-22T20:11:43.269Z,16.98
2023-05-22T20:14:10.030Z,11.30
2023-05-22T20:16:37.178Z,8.13
2023-05-22T20:19:04.143Z,8.82
2023-05-22T20:21:33.899Z,6.18
2023-05-22T20:24:01.916Z,13.20
2023-05-22T20:26:28.794Z,5.85
2023-05-22T20:28:55.801Z,8.05
2023-05-22T20:31:22.679Z,7.13
2023-05-22T20:33:49.485Z,6.53
2023-05-22T20:36:16.501Z,8.77
2023-05-22T20:38:43.917Z,6.40
2023-05-22T20:41:12.931Z,7.15
2023-05-22T20:43:43.331Z,21.67
2023-05-22T20:46:10.559Z,9.05
2023-05-22T20:48:38.149Z,8.50
2023-05-22T20:51:05.089Z,8.43
2023-05-22T20:53:31.858Z,11.55
2023-05-22T20:55:58.724Z,8.52
2023-05-22T20:58:27.309Z,11.15
2023-05-22T21:00:57.679Z,6.63
2023-05-22T21:03:25.796Z,8.17
2023-05-22T21:05:52.987Z,8.50
2023-05-22T21:08:21.404Z,6.60
2023-05-22T21:10:48.230Z,6.32
2023-05-22T21:13:17.547Z,7.05
2023-05-22T21:15:44.387Z,9.52
2023-05-22T21:18:12.516Z,11.85
2023-05-22T21:20:48.417Z,9.05
2023-05-22T21:23:18.114Z,10.73
2023-05-22T21:25:44.938Z,14.85
2023-05-22T21:28:11.687Z,12.77
2023-05-22T21:30:38.660Z,10.32
2023-05-22T21:33:06.061Z,11.10
2023-05-22T21:35:32.846Z,13.55
2023-05-22T21:37:59.577Z,10.00
2023-05-22T21:40:26.754Z,12.25
2023-05-22T21:42:53.563Z,12.77
2023-05-22T21:45:30.159Z,11.88
2023-05-22T21:47:58.148Z,12.93
2023-05-22T21:50:25.574Z,7.50
2023-05-22T21:52:55.688Z,12.70
2023-05-22T21:55:22.706Z,12.52
2023-05-22T21:57:49.419Z,8.27
2023-05-22T22:00:17.382Z,13.13
2023-05-22T22:02:47.653Z,11.68
2023-05-22T22:05:14.643Z,12.10
2023-05-22T22:07:43.494Z,12.75
2023-05-22T22:10:10.538Z,9.85
2023-05-22T22:12:41.488Z,15.18
2023-05-22T22:15:12.514Z,13.18
2023-05-22T22:17:40.674Z,10.10
2023-05-22T22:20:11.397Z,15.82
2023-05-22T22:22:41.769Z,11.70
2023-05-22T22:25:08.793Z,19.70
2023-05-22T22:27:36.937Z,11.68
2023-05-22T22:30:07.304Z,10.73
2023-05-22T22:32:34.439Z,9.07
2023-05-22T22:35:02.041Z,12.90
2023-05-22T22:37:28.808Z,8.27
2023-05-22T22:39:58.553Z,11.95
2023-05-22T22:42:26.645Z,10.55
2023-05-22T22:44:53.397Z,17.98
2023-05-22T22:47:23.263Z,12.52
2023-05-22T22:49:50.241Z,9.38
2023-05-22T22:52:17.047Z,11.68
2023-05-22T22:54:44.891Z,10.05
2023-05-22T22:57:14.432Z,10.25
2023-05-22T22:59:41.237Z,10.60
2023-05-22T23:02:08.280Z,11.13
2023-05-22T23:04:35.176Z,8.38
2023-05-22T23:07:02.084Z,11.98
2023-05-22T23:09:28.916Z,11.50
2023-05-22T23:11:55.752Z,8.63
2023-05-22T23:14:22.570Z,11.38
2023-05-22T23:16:51.953Z,12.38
2023-05-22T23:19:18.929Z,8.90
2023-05-22T23:21:46.052Z,10.93
2023-05-22T23:24:12.749Z,13.07
2023-05-22T23:26:39.560Z,10.90
2023-05-22T23:29:06.535Z,10.18
2023-05-22T23:31:33.349Z,20.58
2023-05-22T23:34:00.060Z,18.17
2023-05-22T23:36:26.901Z,9.77
2023-05-22T23:38:53.961Z,13.43
2023-05-22T23:41:20.823Z,10.82
2023-05-22T23:43:47.570Z,8.27
2023-05-22T23:46:14.878Z,13.43
2023-05-22T23:48:42.452Z,13.95
2023-05-22T23:51:09.891Z,12.38
2023-05-22T23:53:38.484Z,10.70
2023-05-22T23:56:05.500Z,11.50
2023-05-22T23:58:32.480Z,11.63
